Time;durP1;ratioP1;P1;durP2;ratioP2;P2;SDS_P1;SDS_P2;PMS_P1;PMS_P2;Temp;Humidity;BMP_temperature;BMP_pressure;BME280_temperature;BME280_humidity;BME280_pressure;Samples;Min_cycle;Max_cycle;Signal;HPM_P1;HPM_P2
2021/11/23 00:00:36;;;;;;;9.30;6.73;;;3.40;99.90;;;;;;5093768;28;20511;-67
2021/11/23 00:03:03;;;;;;;11.40;6.70;;;3.30;99.90;;;;;;5093893;28;20568;-67
2021/11/23 00:05:30;;;;;;;15.10;7.40;;;3.30;99.90;;;;;;5093769;28;20912;-66
2021/11/23 00:07:58;;;;;;;11.73;6.53;;;3.20;99.90;;;;;;5094299;28;20829;-67
2021/11/23 00:10:26;;;;;;;8.33;6.77;;;3.20;99.90;;;;;;5093943;28;20458;-67
2021/11/23 00:12:53;;;;;;;9.50;5.83;;;3.10;99.90;;;;;;5094175;28;20497;-67
2021/11/23 00:15:20;;;;;;;8.37;6.20;;;3.10;99.90;;;;;;5093891;28;20458;-67
2021/11/23 00:17:47;;;;;;;12.53;7.30;;;3.10;99.90;;;;;;5094408;28;20533;-67
2021/11/23 00:20:14;;;;;;;11.33;6.67;;;3.00;99.90;;;;;;5097343;28;20462;-67
2021/11/23 00:22:41;;;;;;;11.27;8.07;;;3.00;99.90;;;;;;5097302;28;20484;-67
2021/11/23 00:25:10;;;;;;;12.93;7.87;;;3.00;99.90;;;;;;5097573;28;20456;-66
2021/11/23 00:27:36;;;;;;;11.30;7.97;;;3.00;99.90;;;;;;5097400;28;20461;-67
2021/11/23 00:30:04;;;;;;;9.17;6.50;;;3.00;99.90;;;;;;5096921;28;20503;-69
2021/11/23 00:32:31;;;;;;;11.13;7.10;;;3.00;99.90;;;;;;5097189;28;20465;-67
2021/11/23 00:34:59;;;;;;;10.50;8.27;;;3.00;99.90;;;;;;5097433;28;20454;-67
2021/11/23 00:37:26;;;;;;;9.13;7.83;;;2.90;99.90;;;;;;5097035;28;20487;-66
2021/11/23 00:39:53;;;;;;;8.90;7.60;;;3.00;99.90;;;;;;5097428;28;20488;-67
2021/11/23 00:42:21;;;;;;;11.90;7.83;;;2.90;99.90;;;;;;5097302;28;20451;-67
2021/11/23 00:44:48;;;;;;;10.13;8.13;;;2.90;99.90;;;;;;5096722;28;20515;-67
2021/11/23 00:47:15;;;;;;;13.73;8.30;;;2.90;99.90;;;;;;5096928;28;20455;-67
2021/11/23 00:49:43;;;;;;;12.37;7.77;;;2.90;99.90;;;;;;5096965;28;20516;-67
2021/11/23 00:52:10;;;;;;;9.90;7.67;;;2.90;99.90;;;;;;5097149;28;20471;-67
2021/11/23 00:54:40;;;;;;;20.43;8.67;;;2.90;99.90;;;;;;5097237;28;20467;-67
2021/11/23 00:57:07;;;;;;;14.60;8.53;;;2.90;99.90;;;;;;5096422;28;20485;-68
2021/11/23 00:59:38;;;;;;;9.13;8.20;;;2.90;99.90;;;;;;5097020;28;20488;-68
2021/11/23 01:02:06;;;;;;;10.33;8.13;;;2.80;99.90;;;;;;5096642;28;20449;-68
2021/11/23 01:04:33;;;;;;;11.90;8.27;;;2.80;99.90;;;;;;5097010;28;20458;-68
2021/11/23 01:07:00;;;;;;;10.87;7.57;;;2.90;99.90;;;;;;5096622;28;20449;-68
2021/11/23 01:09:27;;;;;;;11.13;8.33;;;2.90;99.90;;;;;;5096855;28;20478;-68
2021/11/23 01:11:56;;;;;;;12.67;8.53;;;2.90;99.90;;;;;;5096607;28;20500;-68
2021/11/23 01:14:23;;;;;;;12.63;9.47;;;2.90;99.90;;;;;;5096799;28;20461;-69
2021/11/23 01:16:52;;;;;;;13.20;9.23;;;2.90;99.90;;;;;;5096837;28;20485;-67
2021/11/23 01:19:20;;;;;;;10.27;9.07;;;2.90;99.90;;;;;;5096907;28;20797;-66
2021/11/23 01:21:47;;;;;;;13.47;9.00;;;2.90;99.90;;;;;;5096069;28;20515;-67
2021/11/23 01:24:15;;;;;;;13.60;8.80;;;2.90;99.90;;;;;;5096454;28;20441;-67
2021/11/23 01:26:43;;;;;;;11.30;9.20;;;3.00;99.90;;;;;;5096512;28;20454;-67
2021/11/23 01:29:11;;;;;;;14.47;9.13;;;3.00;99.90;;;;;;5095868;28;20812;-67
2021/11/23 01:31:39;;;;;;;10.60;8.47;;;3.10;99.90;;;;;;5095836;28;20458;-67
2021/11/23 01:34:08;;;;;;;10.93;8.23;;;3.10;99.90;;;;;;5096422;28;20493;-67
2021/11/23 01:36:35;;;;;;;13.33;9.50;;;3.10;99.90;;;;;;5096391;28;20478;-68
2021/11/23 01:39:02;;;;;;;11.43;8.10;;;3.10;99.90;;;;;;5096373;28;20482;-67
2021/11/23 01:41:29;;;;;;;14.20;8.30;;;3.10;99.90;;;;;;5096061;28;20520;-67
2021/11/23 01:43:56;;;;;;;13.70;8.50;;;3.10;99.90;;;;;;5096661;28;20509;-66
2021/11/23 01:46:23;;;;;;;10.83;8.53;;;3.20;99.90;;;;;;5096125;28;20450;-67
2021/11/23 01:48:50;;;;;;;11.40;8.30;;;3.10;99.90;;;;;;5095954;28;20529;-67
2021/11/23 01:51:18;;;;;;;18.53;8.90;;;3.20;99.90;;;;;;5095916;28;20455;-67
2021/11/23 01:53:46;;;;;;;9.23;8.00;;;3.20;99.90;;;;;;5095909;28;20528;-67
2021/11/23 01:56:13;;;;;;;12.87;10.30;;;3.20;99.90;;;;;;5095861;28;20475;-66
2021/11/23 01:58:41;;;;;;;10.60;8.50;;;3.30;99.90;;;;;;5095740;28;20545;-67
2021/11/23 02:01:08;;;;;;;12.60;8.33;;;3.30;99.90;;;;;;5095612;28;20911;-68
2021/11/23 02:03:36;;;;;;;13.43;8.30;;;3.40;99.90;;;;;;5095727;28;20488;-67
2021/11/23 02:06:04;;;;;;;11.10;7.83;;;3.40;99.90;;;;;;5095336;28;20523;-67
2021/11/23 02:08:33;;;;;;;10.47;7.70;;;3.50;99.90;;;;;;5095396;28;20904;-67
2021/11/23 02:11:00;;;;;;;9.33;8.23;;;3.50;99.90;;;;;;5095165;28;20462;-67
2021/11/23 02:13:29;;;;;;;11.13;8.30;;;3.50;99.90;;;;;;5095698;28;20487;-67
2021/11/23 02:15:56;;;;;;;9.73;8.10;;;3.50;99.90;;;;;;5095014;28;20451;-68
2021/11/23 02:18:24;;;;;;;10.97;8.03;;;3.50;99.90;;;;;;5095267;28;20628;-67
2021/11/23 02:20:53;;;;;;;10.73;7.90;;;3.50;99.90;;;;;;5095481;28;20472;-67
2021/11/23 02:23:22;;;;;;;11.20;9.03;;;3.60;99.90;;;;;;5094877;28;20609;-67
2021/11/23 02:25:49;;;;;;;12.10;8.03;;;3.60;99.90;;;;;;5095286;28;20463;-68
2021/11/23 02:28:16;;;;;;;13.90;8.77;;;3.60;99.90;;;;;;5095736;28;20482;-67
2021/11/23 02:30:46;;;;;;;9.30;7.87;;;3.70;99.90;;;;;;5095419;28;20811;-65
2021/11/23 02:33:13;;;;;;;12.50;8.23;;;3.60;99.90;;;;;;5095057;28;20765;-67
2021/11/23 02:35:41;;;;;;;12.90;8.13;;;3.60;99.90;;;;;;5095051;28;20466;-68
2021/11/23 02:38:10;;;;;;;15.13;8.87;;;3.60;99.90;;;;;;5095058;28;20475;-67
2021/11/23 02:40:36;;;;;;;17.80;8.23;;;3.60;99.90;;;;;;5094776;28;20517;-67
2021/11/23 02:43:04;;;;;;;9.80;8.20;;;3.60;99.90;;;;;;5094777;28;20911;-67
2021/11/23 02:45:31;;;;;;;8.90;7.97;;;3.70;99.90;;;;;;5094817;28;20517;-67
2021/11/23 02:48:01;;;;;;;15.50;8.60;;;3.70;99.90;;;;;;5095260;28;20548;-68
2021/11/23 02:50:29;;;;;;;9.53;8.30;;;3.80;99.90;;;;;;5095052;28;20456;-68
2021/11/23 02:52:56;;;;;;;15.07;8.50;;;3.80;99.90;;;;;;5095697;28;20513;-67
2021/11/23 02:55:27;;;;;;;9.50;8.23;;;3.90;99.90;;;;;;5094992;28;20783;-67
2021/11/23 02:57:54;;;;;;;10.23;6.90;;;3.90;99.90;;;;;;5095062;28;20475;-67
2021/11/23 03:00:24;;;;;;;13.07;6.97;;;4.00;99.90;;;;;;5094833;28;20496;-67
2021/11/23 03:02:53;;;;;;;12.23;7.77;;;4.10;99.90;;;;;;5095149;28;20516;-67
2021/11/23 03:05:22;;;;;;;13.13;8.50;;;4.10;99.90;;;;;;5095133;28;20836;-68
2021/11/23 03:07:51;;;;;;;14.23;7.93;;;4.10;99.90;;;;;;5094566;28;20894;-68
2021/11/23 03:10:20;;;;;;;10.23;7.40;;;4.10;99.90;;;;;;5094567;28;20459;-66
2021/11/23 03:12:50;;;;;;;8.00;6.93;;;4.20;99.90;;;;;;5094750;28;20851;-67
2021/11/23 03:15:19;;;;;;;10.27;8.00;;;4.20;99.90;;;;;;5095696;28;20509;-67
2021/11/23 03:17:47;;;;;;;8.57;6.70;;;4.30;99.90;;;;;;5094627;28;20894;-66
2021/11/23 03:20:16;;;;;;;12.60;7.33;;;4.30;99.90;;;;;;5094229;28;20464;-67
2021/11/23 03:22:43;;;;;;;9.67;7.40;;;4.30;99.90;;;;;;5094422;28;20490;-67
2021/11/23 03:25:11;;;;;;;9.27;8.00;;;4.30;99.90;;;;;;5094700;28;20868;-67
2021/11/23 03:27:38;;;;;;;11.93;7.90;;;4.30;99.90;;;;;;5094888;28;20842;-67
2021/11/23 03:30:09;;;;;;;12.73;8.60;;;4.30;99.90;;;;;;5094774;28;20523;-67
2021/11/23 03:32:36;;;;;;;10.70;8.40;;;4.30;99.90;;;;;;5094748;28;20453;-67
2021/11/23 03:35:04;;;;;;;17.20;8.60;;;4.30;99.90;;;;;;5094436;28;20939;-66
2021/11/23 03:37:32;;;;;;;11.63;8.87;;;4.20;99.90;;;;;;5094733;28;20864;-67
2021/11/23 03:39:59;;;;;;;11.93;8.60;;;4.20;99.90;;;;;;5094270;28;20465;-67
2021/11/23 03:42:26;;;;;;;11.87;8.73;;;4.20;99.90;;;;;;5094628;28;20532;-67
2021/11/23 03:44:58;;;;;;;12.03;9.23;;;4.10;99.90;;;;;;5094142;28;20521;-67
2021/11/23 03:47:28;;;;;;;13.00;9.07;;;4.10;99.90;;;;;;5094197;28;20436;-67
2021/11/23 03:49:56;;;;;;;13.53;8.90;;;4.10;99.90;;;;;;5093916;28;20475;-67
2021/11/23 03:52:23;;;;;;;16.43;10.27;;;4.00;99.90;;;;;;5094342;28;20463;-67
2021/11/23 03:54:50;;;;;;;14.97;10.17;;;4.00;99.90;;;;;;5098212;28;20461;-66
2021/11/23 03:57:17;;;;;;;16.20;11.30;;;4.10;99.90;;;;;;5098463;28;20487;-68
2021/11/23 03:59:47;;;;;;;14.83;10.97;;;4.00;99.90;;;;;;5098770;28;20457;-67
2021/11/23 04:02:17;;;;;;;10.00;8.20;;;4.00;99.90;;;;;;5098172;28;20545;-67
2021/11/23 04:04:45;;;;;;;14.93;9.90;;;4.00;99.90;;;;;;5098315;28;20490;-67
2021/11/23 04:07:12;;;;;;;12.63;9.63;;;4.00;99.90;;;;;;5098404;28;20452;-67
2021/11/23 04:09:44;;;;;;;13.60;11.07;;;4.00;99.90;;;;;;5098536;28;20987;-67
2021/11/23 04:12:12;;;;;;;15.60;10.73;;;4.00;99.90;;;;;;5098647;28;20498;-67
2021/11/23 04:14:40;;;;;;;13.10;9.30;;;4.10;99.90;;;;;;5098747;28;20558;-67
2021/11/23 04:17:08;;;;;;;18.33;11.07;;;4.00;99.90;;;;;;5098009;28;20511;-67
2021/11/23 04:19:36;;;;;;;18.23;10.17;;;4.10;99.90;;;;;;5098139;28;20456;-66
2021/11/23 04:22:06;;;;;;;16.67;10.60;;;4.10;99.90;;;;;;5097929;28;20479;-68
2021/11/23 04:24:33;;;;;;;15.80;10.50;;;4.10;99.90;;;;;;5098368;28;20443;-67
2021/11/23 04:27:02;;;;;;;15.87;10.47;;;4.10;99.90;;;;;;5097755;28;20504;-66
2021/11/23 04:29:29;;;;;;;15.33;10.73;;;4.10;99.90;;;;;;5097877;28;20460;-66
2021/11/23 04:31:56;;;;;;;14.50;10.20;;;4.10;99.90;;;;;;5097618;28;20532;-67
2021/11/23 04:34:23;;;;;;;20.50;11.73;;;4.10;99.90;;;;;;5097594;28;20530;-68
2021/11/23 04:36:50;;;;;;;15.63;10.83;;;4.10;99.90;;;;;;5098138;28;20505;-67
2021/11/23 04:39:19;;;;;;;21.17;10.97;;;4.20;99.90;;;;;;5097775;28;20482;-66
2021/11/23 04:41:46;;;;;;;16.50;11.40;;;4.20;99.90;;;;;;5097293;28;20462;-67
2021/11/23 04:44:13;;;;;;;15.67;11.37;;;4.20;99.90;;;;;;5097639;28;20541;-67
2021/11/23 04:46:40;;;;;;;17.57;11.17;;;4.30;99.90;;;;;;5097120;28;20458;-66
2021/11/23 04:49:07;;;;;;;19.80;11.60;;;4.30;99.90;;;;;;5096658;28;20452;-66
2021/11/23 04:51:34;;;;;;;17.67;12.60;;;4.30;99.90;;;;;;5096828;28;20456;-67
2021/11/23 04:54:01;;;;;;;19.93;10.83;;;4.30;99.90;;;;;;5096738;28;20789;-67
2021/11/23 04:56:30;;;;;;;19.60;12.80;;;4.30;99.90;;;;;;5096631;28;20525;-67
2021/11/23 04:59:00;;;;;;;18.13;12.00;;;4.40;99.90;;;;;;5096611;28;20480;-67
2021/11/23 05:01:27;;;;;;;22.53;12.93;;;4.40;99.90;;;;;;5097101;28;20499;-67
2021/11/23 05:03:55;;;;;;;18.60;13.83;;;4.30;99.90;;;;;;5096966;28;20521;-67
2021/11/23 05:06:23;;;;;;;24.80;13.60;;;4.30;99.90;;;;;;5096737;28;20464;-67
2021/11/23 05:08:50;;;;;;;24.63;13.47;;;4.40;99.90;;;;;;5096402;28;20492;-67
2021/11/23 05:11:18;;;;;;;18.40;13.67;;;4.30;99.90;;;;;;5096486;28;20487;-67
2021/11/23 05:13:46;;;;;;;33.27;13.30;;;4.40;99.90;;;;;;5096596;28;20946;-67
2021/11/23 05:16:13;;;;;;;21.53;13.97;;;4.40;99.90;;;;;;5096450;28;20456;-67
2021/11/23 05:18:40;;;;;;;19.67;14.00;;;4.40;99.90;;;;;;5096195;28;20977;-68
2021/11/23 05:21:07;;;;;;;23.37;15.00;;;4.40;99.90;;;;;;5096769;28;20484;-68
2021/11/23 05:23:34;;;;;;;29.33;15.30;;;4.40;99.90;;;;;;5096229;28;20518;-67
2021/11/23 05:26:01;;;;;;;22.97;15.40;;;4.40;99.90;;;;;;5096751;28;20970;-67
2021/11/23 05:28:28;;;;;;;24.20;15.73;;;4.40;99.90;;;;;;5096201;28;20452;-67
2021/11/23 05:30:56;;;;;;;29.17;16.50;;;4.40;99.90;;;;;;5096368;28;20524;-67
2021/11/23 05:33:23;;;;;;;24.53;15.27;;;4.40;99.90;;;;;;5095752;28;20918;-67
2021/11/23 05:35:53;;;;;;;23.50;15.23;;;4.50;99.90;;;;;;5096235;28;20457;-67
2021/11/23 05:38:21;;;;;;;31.60;15.30;;;4.50;99.90;;;;;;5096279;28;20512;-67
2021/11/23 05:40:49;;;;;;;24.73;14.93;;;4.50;99.90;;;;;;5096063;28;20543;-67
2021/11/23 05:43:16;;;;;;;29.23;15.60;;;4.60;99.90;;;;;;5095912;28;20584;-68
2021/11/23 05:45:44;;;;;;;25.23;15.63;;;4.60;99.90;;;;;;5095907;28;20530;-67
2021/11/23 05:48:12;;;;;;;24.30;15.73;;;4.60;99.90;;;;;;5095769;28;20450;-68
2021/11/23 05:50:40;;;;;;;26.00;17.07;;;4.60;99.90;;;;;;5095623;28;20768;-66
2021/11/23 05:53:07;;;;;;;22.30;15.83;;;4.60;99.90;;;;;;5095655;28;20467;-67
2021/11/23 05:55:34;;;;;;;24.23;15.40;;;4.60;99.90;;;;;;5095710;28;20517;-67
2021/11/23 05:58:02;;;;;;;21.53;14.50;;;4.70;99.90;;;;;;5095656;28;20566;-67
2021/11/23 06:00:29;;;;;;;22.60;15.60;;;4.70;99.90;;;;;;5095162;28;20791;-68
2021/11/23 06:02:56;;;;;;;30.53;17.20;;;4.70;99.90;;;;;;5095178;28;20520;-67
2021/11/23 06:05:25;;;;;;;22.90;15.37;;;4.70;99.90;;;;;;5095481;28;20839;-66
2021/11/23 06:07:52;;;;;;;24.97;15.73;;;4.80;99.90;;;;;;5095242;28;20541;-66
2021/11/23 06:10:19;;;;;;;25.83;15.63;;;4.80;99.90;;;;;;5095293;28;20460;-67
2021/11/23 06:12:46;;;;;;;27.47;16.97;;;4.80;99.90;;;;;;5095492;28;20801;-67
2021/11/23 06:15:13;;;;;;;33.00;16.27;;;4.90;99.90;;;;;;5095063;28;20455;-66
2021/11/23 06:17:41;;;;;;;28.23;15.43;;;4.90;99.90;;;;;;5095038;28;20545;-67
2021/11/23 06:20:10;;;;;;;29.47;15.77;;;4.90;99.90;;;;;;5095485;28;20849;-67
2021/11/23 06:22:38;;;;;;;33.50;18.87;;;4.90;99.90;;;;;;5094773;28;20500;-67
2021/11/23 06:25:08;;;;;;;26.87;16.03;;;5.00;99.90;;;;;;5094773;28;20457;-67
2021/11/23 06:27:37;;;;;;;25.20;15.30;;;5.00;99.90;;;;;;5094841;28;20465;-67
2021/11/23 06:30:06;;;;;;;33.43;16.57;;;5.00;99.90;;;;;;5094522;28;20496;-67
2021/11/23 06:32:33;;;;;;;31.67;17.57;;;5.00;99.90;;;;;;5095146;28;20453;-66
2021/11/23 06:34:59;;;;;;;35.67;16.87;;;5.10;99.90;;;;;;5094980;28;20473;-66
2021/11/23 06:37:27;;;;;;;36.20;17.67;;;5.10;99.90;;;;;;5094686;28;20535;-66
2021/11/23 06:39:55;;;;;;;34.50;17.10;;;5.10;99.90;;;;;;5094587;28;20460;-67
2021/11/23 06:42:22;;;;;;;31.27;16.80;;;5.10;99.90;;;;;;5094373;28;20453;-67
2021/11/23 06:44:49;;;;;;;30.97;18.07;;;5.10;99.90;;;;;;5095005;28;20514;-66
2021/11/23 06:47:16;;;;;;;32.90;17.73;;;5.10;99.90;;;;;;5094726;28;20493;-66
2021/11/23 06:49:43;;;;;;;32.20;16.57;;;5.10;99.90;;;;;;5094308;28;20522;-66
2021/11/23 06:52:11;;;;;;;28.93;17.60;;;5.10;99.90;;;;;;5094292;28;20917;-67
2021/11/23 06:54:39;;;;;;;26.73;17.47;;;5.20;99.90;;;;;;5094271;28;20498;-68
2021/11/23 06:57:08;;;;;;;42.27;19.50;;;5.20;99.90;;;;;;5094517;28;20468;-67
2021/11/23 06:59:35;;;;;;;38.47;15.63;;;5.20;99.90;;;;;;5094236;28;21029;-67
2021/11/23 07:02:02;;;;;;;29.37;16.60;;;5.20;99.90;;;;;;5094088;28;20461;-68
2021/11/23 07:04:29;;;;;;;27.77;16.40;;;5.30;99.90;;;;;;5094147;28;20925;-67
2021/11/23 07:06:56;;;;;;;30.13;17.20;;;5.20;99.90;;;;;;5094622;28;20518;-67
2021/11/23 07:09:23;;;;;;;30.27;17.50;;;5.20;99.90;;;;;;5094734;28;20453;-67
2021/11/23 07:11:51;;;;;;;30.83;18.27;;;5.20;99.90;;;;;;5094249;28;20500;-69
2021/11/23 07:14:20;;;;;;;36.97;17.60;;;5.30;99.90;;;;;;5094552;28;20782;-68
2021/11/23 07:16:47;;;;;;;37.63;17.90;;;5.30;99.90;;;;;;5094452;28;20517;-68
2021/11/23 07:19:14;;;;;;;32.43;17.47;;;5.30;99.90;;;;;;5095129;28;20776;-67
2021/11/23 07:21:42;;;;;;;34.10;18.17;;;5.30;99.90;;;;;;5094628;28;20460;-69
2021/11/23 07:24:09;;;;;;;32.17;18.37;;;5.30;99.90;;;;;;5095005;28;20444;-68
2021/11/23 07:26:37;;;;;;;39.93;18.57;;;5.40;99.90;;;;;;5095686;28;20474;-68
2021/11/23 07:29:05;;;;;;;34.17;17.20;;;5.40;99.90;;;;;;5098165;28;20461;-68
2021/11/23 07:31:33;;;;;;;34.40;18.67;;;5.40;99.90;;;;;;5098894;28;20513;-68
2021/11/23 07:34:00;;;;;;;31.77;17.83;;;5.40;99.90;;;;;;5099358;28;20925;-68
2021/11/23 07:36:28;;;;;;;31.37;17.97;;;5.40;99.90;;;;;;5098306;28;20761;-69
2021/11/23 07:39:00;;;;;;;32.00;18.50;;;5.40;99.90;;;;;;5098084;28;20488;-68
2021/11/23 07:41:27;;;;;;;33.93;18.00;;;5.40;99.90;;;;;;5098737;28;20449;-69
2021/11/23 07:43:55;;;;;;;34.67;17.83;;;5.40;99.90;;;;;;5098095;28;20510;-68
2021/11/23 07:46:22;;;;;;;30.87;18.07;;;5.40;99.90;;;;;;5097806;28;20787;-70
2021/11/23 07:48:50;;;;;;;26.63;16.20;;;5.40;99.90;;;;;;5097775;28;20483;-69
2021/11/23 07:51:17;;;;;;;39.60;18.73;;;5.40;99.90;;;;;;5098132;28;20455;-67
2021/11/23 07:53:44;;;;;;;31.80;17.50;;;5.40;99.90;;;;;;5097437;28;20625;-68
2021/11/23 07:56:13;;;;;;;32.10;17.50;;;5.40;99.90;;;;;;5097599;28;20525;-67
2021/11/23 07:58:39;;;;;;;30.90;17.60;;;5.50;99.90;;;;;;5097719;28;20481;-69
2021/11/23 08:01:07;;;;;;;26.23;15.73;;;5.40;99.90;;;;;;5098063;28;20453;-69
2021/11/23 08:03:34;;;;;;;31.17;17.47;;;5.40;99.90;;;;;;5097439;28;20514;-69
2021/11/23 08:06:02;;;;;;;32.70;17.67;;;5.40;99.90;;;;;;5097819;28;20818;-69
2021/11/23 08:08:29;;;;;;;31.03;17.03;;;5.40;99.90;;;;;;5097334;28;20456;-69
2021/11/23 08:10:58;;;;;;;38.27;19.90;;;5.40;99.90;;;;;;5097381;28;20461;-69
2021/11/23 08:13:25;;;;;;;37.07;18.20;;;5.40;99.90;;;;;;5097639;28;20471;-67
2021/11/23 08:15:52;;;;;;;38.03;19.37;;;5.40;99.90;;;;;;5096945;28;20453;-69
2021/11/23 08:18:19;;;;;;;34.13;18.83;;;5.40;99.90;;;;;;5097113;28;20477;-73
2021/11/23 08:20:47;;;;;;;37.00;17.90;;;5.40;99.90;;;;;;5097400;28;20505;-68
2021/11/23 08:23:15;;;;;;;32.87;18.20;;;5.50;99.90;;;;;;5096853;28;20480;-68
2021/11/23 08:25:44;;;;;;;32.20;17.13;;;5.50;99.90;;;;;;5096722;28;20500;-69
2021/11/23 08:28:11;;;;;;;35.07;18.03;;;5.50;99.90;;;;;;5096201;28;20464;-67
2021/11/23 08:30:38;;;;;;;29.70;17.27;;;5.60;99.90;;;;;;5096369;28;20822;-67
2021/11/23 08:33:05;;;;;;;30.93;17.87;;;5.60;99.90;;;;;;5096426;28;20788;-68
2021/11/23 08:35:32;;;;;;;28.80;18.07;;;5.60;99.90;;;;;;5096196;28;20933;-68
2021/11/23 08:37:59;;;;;;;32.20;17.37;;;5.60;99.90;;;;;;5095669;28;20485;-68
2021/11/23 08:40:29;;;;;;;33.73;16.83;;;5.70;99.90;;;;;;5095681;28;20842;-68
2021/11/23 08:42:58;;;;;;;38.93;18.87;;;5.70;99.90;;;;;;5095877;28;20442;-68
2021/11/23 08:45:25;;;;;;;40.33;20.20;;;5.70;99.90;;;;;;5095811;28;20511;-68
2021/11/23 08:47:52;;;;;;;35.97;17.37;;;5.70;99.90;;;;;;5095982;28;20839;-69
2021/11/23 08:50:19;;;;;;;35.40;18.33;;;5.70;99.90;;;;;;5095673;28;20509;-68
2021/11/23 08:52:46;;;;;;;36.87;19.60;;;5.70;99.90;;;;;;5095656;28;20458;-68
2021/11/23 08:55:13;;;;;;;34.23;17.00;;;5.80;99.90;;;;;;5095998;28;20454;-68
2021/11/23 08:57:42;;;;;;;36.80;17.03;;;5.80;99.90;;;;;;5096028;28;20458;-68
2021/11/23 09:00:14;;;;;;;41.00;18.17;;;5.80;99.90;;;;;;5096017;28;20477;-68
2021/11/23 09:02:42;;;;;;;29.53;17.17;;;5.80;99.90;;;;;;5096023;28;20448;-67
2021/11/23 09:05:11;;;;;;;33.97;18.57;;;5.80;99.90;;;;;;5095867;28;20453;-68
2021/11/23 09:07:38;;;;;;;32.00;17.23;;;5.90;99.90;;;;;;5095560;28;20450;-68
2021/11/23 09:10:09;;;;;;;32.13;17.77;;;5.90;99.90;;;;;;5095784;28;20454;-69
2021/11/23 09:12:36;;;;;;;36.87;19.40;;;5.90;99.90;;;;;;5095384;28;20458;-68
2021/11/23 09:15:04;;;;;;;30.30;15.90;;;5.90;99.90;;;;;;5095685;28;20510;-68
2021/11/23 09:17:31;;;;;;;34.07;16.10;;;5.90;99.90;;;;;;5095177;28;20915;-68
2021/11/23 09:19:58;;;;;;;34.03;16.67;;;5.90;99.90;;;;;;5095453;28;20549;-68
2021/11/23 09:22:26;;;;;;;31.93;17.60;;;5.90;99.90;;;;;;5056664;28;1111565;-68
2021/11/23 09:24:52;;;;;;;28.37;16.07;;;6.00;99.90;;;;;;5096548;28;20530;-68
2021/11/23 09:27:19;;;;;;;27.77;15.73;;;6.00;99.90;;;;;;5096340;28;20540;-68
2021/11/23 09:29:46;;;;;;;31.10;16.17;;;6.00;99.90;;;;;;5096533;28;20834;-68
2021/11/23 09:32:15;;;;;;;40.63;17.17;;;6.00;99.90;;;;;;5096101;28;20896;-68
2021/11/23 09:34:43;;;;;;;29.10;16.03;;;6.00;99.90;;;;;;5096998;28;20818;-68
2021/11/23 09:37:10;;;;;;;29.33;15.67;;;6.00;99.90;;;;;;5096079;28;20515;-69
2021/11/23 09:39:37;;;;;;;36.40;16.40;;;6.00;99.90;;;;;;5095847;28;20554;-67
2021/11/23 09:42:04;;;;;;;30.53;15.73;;;6.10;99.90;;;;;;5096239;28;20461;-68
2021/11/23 09:44:31;;;;;;;32.90;16.67;;;6.10;99.90;;;;;;5095820;28;20487;-68
2021/11/23 09:46:58;;;;;;;29.90;16.67;;;6.10;99.90;;;;;;5095966;28;20514;-69
2021/11/23 09:49:26;;;;;;;25.83;15.53;;;6.10;99.90;;;;;;5095692;28;20507;-69
2021/11/23 09:51:53;;;;;;;29.60;16.13;;;6.20;99.90;;;;;;5095037;28;20530;-68
2021/11/23 09:54:20;;;;;;;32.17;17.10;;;6.20;99.90;;;;;;5095345;28;20487;-67
2021/11/23 09:56:48;;;;;;;30.90;16.40;;;6.20;99.90;;;;;;5095515;28;20979;-67
2021/11/23 09:59:17;;;;;;;29.40;16.73;;;6.20;99.90;;;;;;5095696;28;20477;-67
2021/11/23 10:01:50;;;;;;;34.60;17.57;;;6.20;99.90;;;;;;5095525;28;20458;-67
2021/11/23 10:04:18;;;;;;;31.50;15.80;;;6.20;99.90;;;;;;5095621;28;20470;-67
2021/11/23 10:06:57;;;;;;;31.00;15.77;;;6.20;99.90;;;;;;5095629;28;20923;-67
2021/11/23 10:09:35;;;;;;;30.37;14.60;;;6.30;99.90;;;;;;5095388;28;20521;-67
2021/11/23 10:12:20;;;;;;;26.57;14.77;;;6.30;99.90;;;;;;5095046;28;20442;-67
2021/11/23 10:15:15;;;;;;;26.53;13.93;;;6.30;99.90;;;;;;5094848;28;20828;-67
2021/11/23 10:17:43;;;;;;;28.33;14.27;;;6.30;99.90;;;;;;5059592;28;20473;-66
2021/11/23 10:20:31;;;;;;;28.20;14.20;;;6.30;99.90;;;;;;5094688;28;20478;-66
2021/11/23 10:23:14;;;;;;;23.47;14.30;;;6.20;99.90;;;;;;5094691;28;20606;-68
2021/11/23 10:25:42;;;;;;;25.07;14.03;;;6.30;99.90;;;;;;5094557;28;20445;-67
2021/11/23 10:28:09;;;;;;;34.20;14.90;;;6.30;99.90;;;;;;5094781;28;20523;-68
2021/11/23 10:30:40;;;;;;;31.57;16.20;;;6.30;99.90;;;;;;5094516;28;20519;-67
2021/11/23 10:33:08;;;;;;;31.70;15.63;;;6.30;99.90;;;;;;5094882;28;20503;-67
2021/11/23 10:35:37;;;;;;;26.70;14.60;;;6.30;99.90;;;;;;5094944;28;20763;-67
2021/11/23 10:38:07;;;;;;;29.77;16.00;;;6.40;99.90;;;;;;5094904;28;20454;-67
2021/11/23 10:40:34;;;;;;;28.47;16.10;;;6.40;99.90;;;;;;5094740;28;20506;-68
2021/11/23 10:43:04;;;;;;;31.60;16.20;;;6.40;99.90;;;;;;5094782;28;20549;-67
2021/11/23 10:45:35;;;;;;;32.00;15.67;;;6.50;99.90;;;;;;5095020;28;20789;-67
2021/11/23 10:48:04;;;;;;;28.23;16.30;;;6.50;99.90;;;;;;5094579;28;20453;-67
2021/11/23 10:50:31;;;;;;;34.93;18.60;;;6.50;99.90;;;;;;5095095;28;20530;-67
2021/11/23 10:53:06;;;;;;;32.00;18.30;;;6.50;99.90;;;;;;5095879;28;20819;-67
2021/11/23 10:55:36;;;;;;;31.33;17.17;;;6.50;99.90;;;;;;5095144;28;20523;-67
2021/11/23 10:58:07;;;;;;;32.30;17.57;;;6.60;99.90;;;;;;5094510;28;20645;-66
2021/11/23 11:00:37;;;;;;;30.23;15.10;;;6.70;99.90;;;;;;5094530;28;20466;-67
2021/11/23 11:03:05;;;;;;;26.93;15.73;;;6.70;99.90;;;;;;5094672;28;20505;-67
2021/11/23 11:05:33;;;;;;;32.30;16.80;;;6.70;99.90;;;;;;5094629;28;20524;-66
2021/11/23 11:08:01;;;;;;;26.43;16.37;;;6.70;99.90;;;;;;5094436;28;20494;-66
2021/11/23 11:10:31;;;;;;;29.90;16.37;;;6.70;99.90;;;;;;5094220;28;20535;-67
2021/11/23 11:12:59;;;;;;;31.13;17.33;;;6.80;99.90;;;;;;5094396;28;20763;-66
2021/11/23 11:15:33;;;;;;;31.30;17.20;;;6.80;99.90;;;;;;5094482;28;20453;-67
2021/11/23 11:18:01;;;;;;;34.00;18.10;;;6.80;99.90;;;;;;5093876;28;20438;-66
2021/11/23 11:20:38;;;;;;;27.53;14.83;;;6.80;99.90;;;;;;5094456;28;20801;-66
2021/11/23 11:23:08;;;;;;;28.30;14.77;;;6.80;99.90;;;;;;5094102;28;20489;-67
2021/11/23 11:26:14;;;;;;;32.30;16.40;;;6.80;99.90;;;;;;5094149;28;20531;-66
2021/11/23 11:28:48;;;;;;;27.93;16.67;;;6.80;99.90;;;;;;5094166;28;20542;-66
2021/11/23 11:31:32;;;;;;;29.20;16.23;;;6.90;99.90;;;;;;5094201;28;20507;-67
2021/11/23 11:34:21;;;;;;;25.73;15.87;;;6.90;99.90;;;;;;5092648;28;20447;-67
2021/11/23 11:36:51;;;;;;;31.30;16.73;;;6.90;99.90;;;;;;5093706;28;20898;-68
2021/11/23 11:40:02;;;;;;;30.27;16.73;;;6.90;99.90;;;;;;5093700;28;20574;-66
2021/11/23 11:42:55;;;;;;;23.20;14.70;;;7.00;99.90;;;;;;5087499;28;20794;-66
2021/11/23 11:45:25;;;;;;;25.77;15.67;;;7.00;99.90;;;;;;5093907;28;20435;-68
2021/11/23 11:47:55;;;;;;;22.80;14.40;;;7.00;99.90;;;;;;5094662;28;20438;-67
2021/11/23 11:50:26;;;;;;;33.33;15.83;;;7.00;99.90;;;;;;5095050;28;20442;-73
2021/11/23 11:53:11;;;;;;;23.93;15.70;;;7.10;99.90;;;;;;5094092;28;20451;-67
2021/11/23 11:55:48;;;;;;;24.47;15.00;;;7.10;99.90;;;;;;5093775;28;20443;-66
2021/11/23 11:58:57;;;;;;;29.17;15.90;;;7.10;99.90;;;;;;5094366;28;20462;-67
2021/11/23 12:01:27;;;;;;;24.80;15.00;;;7.10;99.90;;;;;;5088580;28;20470;-67
2021/11/23 12:04:13;;;;;;;24.83;15.73;;;7.10;99.90;;;;;;5094186;28;20517;-66
2021/11/23 12:07:23;;;;;;;22.83;14.17;;;7.20;99.90;;;;;;5094718;28;20740;-67
2021/11/23 12:09:51;;;;;;;22.10;14.90;;;7.20;99.90;;;;;;5078651;28;20504;-67
2021/11/23 12:12:50;;;;;;;25.10;14.50;;;7.20;99.90;;;;;;5095206;28;20523;-66
2021/11/23 12:15:31;;;;;;;23.53;13.73;;;7.30;99.90;;;;;;5097879;28;20444;-66
2021/11/23 12:18:18;;;;;;;22.60;13.80;;;7.30;99.90;;;;;;5097596;28;20473;-68
2021/11/23 12:20:57;;;;;;;21.90;14.10;;;7.30;99.90;;;;;;5097894;28;20466;-67
2021/11/23 12:23:32;;;;;;;20.40;12.93;;;7.40;99.90;;;;;;5097056;28;20572;-66
2021/11/23 12:26:03;;;;;;;29.77;14.30;;;7.40;99.90;;;;;;5097352;28;20439;-68
2021/11/23 12:28:32;;;;;;;22.37;13.57;;;7.40;99.90;;;;;;5097386;28;20443;-67
2021/11/23 12:31:06;;;;;;;26.67;14.77;;;7.40;99.90;;;;;;5096967;28;20875;-67
2021/11/23 12:33:42;;;;;;;21.53;14.23;;;7.40;99.90;;;;;;5097526;28;20823;-66
2021/11/23 12:36:13;;;;;;;29.30;13.97;;;7.40;99.90;;;;;;5097026;28;20828;-67
2021/11/23 12:38:39;;;;;;;19.90;11.60;;;7.50;99.90;;;;;;5097068;28;20440;-67
2021/11/23 12:41:12;;;;;;;18.60;12.40;;;7.40;99.90;;;;;;5096801;28;20517;-66
2021/11/23 12:43:40;;;;;;;20.70;12.00;;;7.50;99.90;;;;;;5096919;28;20453;-67
2021/11/23 12:46:18;;;;;;;22.17;11.63;;;7.50;99.90;;;;;;5096671;28;20992;-67
2021/11/23 12:48:46;;;;;;;22.13;11.83;;;7.50;99.90;;;;;;5097175;28;20446;-66
2021/11/23 12:51:19;;;;;;;20.40;10.80;;;7.50;99.90;;;;;;5096741;28;20546;-67